sensor_id;sensor_type;location;lat;lon;timestamp;P1;P2;P0
74333;PMS5003;62753;40.394;-80.022;2022-10-22T00:01:28;7;7;
74333;PMS5003;62753;40.394;-80.022;2022-10-22T00:03:53;9;8;
74333;PMS5003;62753;40.394;-80.022;2022-10-22T00:06:18;7;7;
74333;PMS5003;62753;40.394;-80.022;2022-10-22T00:08:43;6;5;
74333;PMS5003;62753;40.394;-80.022;2022-10-22T00:11:10;7;7;
74333;PMS5003;62753;40.394;-80.022;2022-10-22T00:13:34;9;8;
74333;PMS5003;62753;40.394;-80.022;2022-10-22T00:15:59;7;6;
74333;PMS5003;62753;40.394;-80.022;2022-10-22T00:18:25;6;6;
74333;PMS5003;62753;40.394;-80.022;2022-10-22T00:20:50;9;8;
74333;PMS5003;62753;40.394;-80.022;2022-10-22T00:23:15;9;8;
74333;PMS5003;62753;40.394;-80.022;2022-10-22T00:25:41;8;6;
74333;PMS5003;62753;40.394;-80.022;2022-10-22T00:28:07;9;8;
74333;PMS5003;62753;40.394;-80.022;2022-10-22T00:30:32;6;6;
74333;PMS5003;62753;40.394;-80.022;2022-10-22T00:32:57;10;9;
74333;PMS5003;62753;40.394;-80.022;2022-10-22T00:35:22;7;6;
74333;PMS5003;62753;40.394;-80.022;2022-10-22T00:37:48;5;5;
74333;PMS5003;62753;40.394;-80.022;2022-10-22T00:40:14;9;8;
74333;PMS5003;62753;40.394;-80.022;2022-10-22T00:42:39;7;7;
74333;PMS5003;62753;40.394;-80.022;2022-10-22T00:45:09;8;7;
74333;PMS5003;62753;40.394;-80.022;2022-10-22T00:47:31;6;6;
74333;PMS5003;62753;40.394;-80.022;2022-10-22T00:49:55;7;7;
74333;PMS5003;62753;40.394;-80.022;2022-10-22T00:52:20;7;6;
74333;PMS5003;62753;40.394;-80.022;2022-10-22T00:54:45;7;6;
74333;PMS5003;62753;40.394;-80.022;2022-10-22T00:57:11;7;7;
74333;PMS5003;62753;40.394;-80.022;2022-10-22T00:59:36;5;5;
74333;PMS5003;62753;40.394;-80.022;2022-10-22T01:02:02;6;6;
74333;PMS5003;62753;40.394;-80.022;2022-10-22T01:04:27;8;7;
74333;PMS5003;62753;40.394;-80.022;2022-10-22T01:06:52;5;4;
74333;PMS5003;62753;40.394;-80.022;2022-10-22T01:09:20;11;9;
74333;PMS5003;62753;40.394;-80.022;2022-10-22T01:11:45;7;7;
74333;PMS5003;62753;40.394;-80.022;2022-10-22T01:14:11;6;5;
74333;PMS5003;62753;40.394;-80.022;2022-10-22T01:16:34;7;7;
74333;PMS5003;62753;40.394;-80.022;2022-10-22T01:19:00;7;7;
74333;PMS5003;62753;40.394;-80.022;2022-10-22T01:21:25;9;8;
74333;PMS5003;62753;40.394;-80.022;2022-10-22T01:26:16;6;6;
74333;PMS5003;62753;40.394;-80.022;2022-10-22T01:28:43;6;6;
74333;PMS5003;62753;40.394;-80.022;2022-10-22T01:31:05;8;5;
74333;PMS5003;62753;40.394;-80.022;2022-10-22T01:33:30;6;6;
74333;PMS5003;62753;40.394;-80.022;2022-10-22T01:35:55;10;9;
74333;PMS5003;62753;40.394;-80.022;2022-10-22T01:38:21;8;7;
74333;PMS5003;62753;40.394;-80.022;2022-10-22T01:40:46;7;6;
74333;PMS5003;62753;40.394;-80.022;2022-10-22T01:43:11;9;9;
74333;PMS5003;62753;40.394;-80.022;2022-10-22T01:45:39;8;7;
74333;PMS5003;62753;40.394;-80.022;2022-10-22T01:48:05;7;6;
74333;PMS5003;62753;40.394;-80.022;2022-10-22T01:50:32;10;9;
74333;PMS5003;62753;40.394;-80.022;2022-10-22T01:52:57;5;5;
74333;PMS5003;62753;40.394;-80.022;2022-10-22T01:55:19;8;7;
74333;PMS5003;62753;40.394;-80.022;2022-10-22T01:57:45;6;6;
74333;PMS5003;62753;40.394;-80.022;2022-10-22T02:00:09;7;6;
74333;PMS5003;62753;40.394;-80.022;2022-10-22T02:02:35;9;8;
74333;PMS5003;62753;40.394;-80.022;2022-10-22T02:05:00;11;9;
74333;PMS5003;62753;40.394;-80.022;2022-10-22T02:07:25;11;10;
74333;PMS5003;62753;40.394;-80.022;2022-10-22T02:09:50;10;10;
74333;PMS5003;62753;40.394;-80.022;2022-10-22T02:12:15;7;7;
74333;PMS5003;62753;40.394;-80.022;2022-10-22T02:14:41;7;6;
74333;PMS5003;62753;40.394;-80.022;2022-10-22T02:17:06;8;8;
74333;PMS5003;62753;40.394;-80.022;2022-10-22T02:19:34;8;7;
74333;PMS5003;62753;40.394;-80.022;2022-10-22T02:21:56;9;8;
74333;PMS5003;62753;40.394;-80.022;2022-10-22T02:24:22;9;8;
74333;PMS5003;62753;40.394;-80.022;2022-10-22T02:26:49;10;8;
74333;PMS5003;62753;40.394;-80.022;2022-10-22T02:29:13;9;9;
74333;PMS5003;62753;40.394;-80.022;2022-10-22T02:31:38;7;7;
74333;PMS5003;62753;40.394;-80.022;2022-10-22T02:34:04;8;8;
74333;PMS5003;62753;40.394;-80.022;2022-10-22T02:36:28;8;8;
74333;PMS5003;62753;40.394;-80.022;2022-10-22T02:38:54;10;9;
74333;PMS5003;62753;40.394;-80.022;2022-10-22T02:41:19;14;13;
74333;PMS5003;62753;40.394;-80.022;2022-10-22T02:43:49;15;15;
74333;PMS5003;62753;40.394;-80.022;2022-10-22T02:46:10;21;17;
74333;PMS5003;62753;40.394;-80.022;2022-10-22T02:48:35;31;26;
74333;PMS5003;62753;40.394;-80.022;2022-10-22T02:51:01;27;25;
74333;PMS5003;62753;40.394;-80.022;2022-10-22T02:53:26;33;31;
74333;PMS5003;62753;40.394;-80.022;2022-10-22T02:55:51;20;20;
74333;PMS5003;62753;40.394;-80.022;2022-10-22T02:58:17;20;20;
74333;PMS5003;62753;40.394;-80.022;2022-10-22T03:00:42;21;20;
74333;PMS5003;62753;40.394;-80.022;2022-10-22T03:03:08;19;18;
74333;PMS5003;62753;40.394;-80.022;2022-10-22T03:05:33;23;21;
74333;PMS5003;62753;40.394;-80.022;2022-10-22T03:07:58;24;24;
74333;PMS5003;62753;40.394;-80.022;2022-10-22T03:10:23;23;23;
74333;PMS5003;62753;40.394;-80.022;2022-10-22T03:12:49;21;20;
74333;PMS5003;62753;40.394;-80.022;2022-10-22T03:15:14;19;17;
74333;PMS5003;62753;40.394;-80.022;2022-10-22T03:17:39;15;14;
74333;PMS5003;62753;40.394;-80.022;2022-10-22T03:20:05;19;17;
74333;PMS5003;62753;40.394;-80.022;2022-10-22T03:22:30;12;11;
74333;PMS5003;62753;40.394;-80.022;2022-10-22T03:24:57;12;11;
74333;PMS5003;62753;40.394;-80.022;2022-10-22T03:27:21;9;9;
74333;PMS5003;62753;40.394;-80.022;2022-10-22T03:29:46;8;6;
74333;PMS5003;62753;40.394;-80.022;2022-10-22T03:32:11;10;9;
74333;PMS5003;62753;40.394;-80.022;2022-10-22T03:34:36;11;10;
74333;PMS5003;62753;40.394;-80.022;2022-10-22T03:37:01;13;12;
74333;PMS5003;62753;40.394;-80.022;2022-10-22T03:39:27;10;10;
74333;PMS5003;62753;40.394;-80.022;2022-10-22T03:41:52;13;11;
74333;PMS5003;62753;40.394;-80.022;2022-10-22T03:44:17;13;12;
74333;PMS5003;62753;40.394;-80.022;2022-10-22T03:46:43;13;11;
74333;PMS5003;62753;40.394;-80.022;2022-10-22T03:49:09;13;11;
74333;PMS5003;62753;40.394;-80.022;2022-10-22T03:51:34;11;10;
74333;PMS5003;62753;40.394;-80.022;2022-10-22T03:53:59;11;10;
74333;PMS5003;62753;40.394;-80.022;2022-10-22T03:56:25;9;8;
74333;PMS5003;62753;40.394;-80.022;2022-10-22T03:58:50;10;9;
74333;PMS5003;62753;40.394;-80.022;2022-10-22T04:01:15;12;11;
74333;PMS5003;62753;40.394;-80.022;2022-10-22T04:03:41;11;11;
74333;PMS5003;62753;40.394;-80.022;2022-10-22T04:06:07;9;9;
74333;PMS5003;62753;40.394;-80.022;2022-10-22T04:08:32;10;10;
74333;PMS5003;62753;40.394;-80.022;2022-10-22T04:10:57;10;9;
74333;PMS5003;62753;40.394;-80.022;2022-10-22T04:13:22;11;10;
74333;PMS5003;62753;40.394;-80.022;2022-10-22T04:15:48;11;10;
74333;PMS5003;62753;40.394;-80.022;2022-10-22T04:18:13;9;9;
74333;PMS5003;62753;40.394;-80.022;2022-10-22T04:20:38;8;7;
74333;PMS5003;62753;40.394;-80.022;2022-10-22T04:23:03;8;8;
74333;PMS5003;62753;40.394;-80.022;2022-10-22T04:25:29;9;8;
74333;PMS5003;62753;40.394;-80.022;2022-10-22T04:27:54;9;8;
74333;PMS5003;62753;40.394;-80.022;2022-10-22T04:30:19;9;9;
74333;PMS5003;62753;40.394;-80.022;2022-10-22T04:32:45;7;7;
74333;PMS5003;62753;40.394;-80.022;2022-10-22T04:35:10;7;7;
74333;PMS5003;62753;40.394;-80.022;2022-10-22T04:37:36;9;8;
74333;PMS5003;62753;40.394;-80.022;2022-10-22T04:40:01;10;9;
74333;PMS5003;62753;40.394;-80.022;2022-10-22T04:42:26;6;6;
74333;PMS5003;62753;40.394;-80.022;2022-10-22T04:44:51;7;7;
74333;PMS5003;62753;40.394;-80.022;2022-10-22T04:47:17;8;7;
74333;PMS5003;62753;40.394;-80.022;2022-10-22T04:49:42;8;7;
74333;PMS5003;62753;40.394;-80.022;2022-10-22T04:52:08;8;8;
74333;PMS5003;62753;40.394;-80.022;2022-10-22T04:54:33;7;5;
74333;PMS5003;62753;40.394;-80.022;2022-10-22T04:56:58;7;6;
74333;PMS5003;62753;40.394;-80.022;2022-10-22T04:59:24;8;7;
74333;PMS5003;62753;40.394;-80.022;2022-10-22T05:01:49;8;7;
74333;PMS5003;62753;40.394;-80.022;2022-10-22T05:04:15;7;5;
74333;PMS5003;62753;40.394;-80.022;2022-10-22T05:06:40;8;7;
74333;PMS5003;62753;40.394;-80.022;2022-10-22T05:09:06;7;6;
74333;PMS5003;62753;40.394;-80.022;2022-10-22T05:11:31;8;8;
74333;PMS5003;62753;40.394;-80.022;2022-10-22T05:13:56;8;7;
74333;PMS5003;62753;40.394;-80.022;2022-10-22T05:16:21;6;6;
74333;PMS5003;62753;40.394;-80.022;2022-10-22T05:18:46;6;6;
74333;PMS5003;62753;40.394;-80.022;2022-10-22T05:21:12;8;8;
74333;PMS5003;62753;40.394;-80.022;2022-10-22T05:23:37;7;6;
74333;PMS5003;62753;40.394;-80.022;2022-10-22T05:26:03;7;7;
74333;PMS5003;62753;40.394;-80.022;2022-10-22T05:28:28;9;9;
74333;PMS5003;62753;40.394;-80.022;2022-10-22T05:30:53;8;8;
74333;PMS5003;62753;40.394;-80.022;2022-10-22T05:33:18;7;7;
74333;PMS5003;62753;40.394;-80.022;2022-10-22T05:35:44;10;8;
74333;PMS5003;62753;40.394;-80.022;2022-10-22T05:38:10;6;6;
74333;PMS5003;62753;40.394;-80.022;2022-10-22T05:40:35;7;7;
74333;PMS5003;62753;40.394;-80.022;2022-10-22T05:43:00;6;6;
74333;PMS5003;62753;40.394;-80.022;2022-10-22T05:45:25;8;8;
74333;PMS5003;62753;40.394;-80.022;2022-10-22T05:47:50;10;9;
74333;PMS5003;62753;40.394;-80.022;2022-10-22T05:50:16;9;8;
74333;PMS5003;62753;40.394;-80.022;2022-10-22T05:52:42;6;6;
74333;PMS5003;62753;40.394;-80.022;2022-10-22T05:55:07;9;9;
74333;PMS5003;62753;40.394;-80.022;2022-10-22T05:57:32;9;8;
74333;PMS5003;62753;40.394;-80.022;2022-10-22T05:59:57;9;9;
74333;PMS5003;62753;40.394;-80.022;2022-10-22T06:02:23;7;7;
74333;PMS5003;62753;40.394;-80.022;2022-10-22T06:04:49;9;8;
74333;PMS5003;62753;40.394;-80.022;2022-10-22T06:07:13;8;7;
74333;PMS5003;62753;40.394;-80.022;2022-10-22T06:09:39;7;7;
74333;PMS5003;62753;40.394;-80.022;2022-10-22T06:12:04;7;6;
74333;PMS5003;62753;40.394;-80.022;2022-10-22T06:14:30;6;6;
74333;PMS5003;62753;40.394;-80.022;2022-10-22T06:16:57;8;8;
74333;PMS5003;62753;40.394;-80.022;2022-10-22T06:19:21;8;8;
74333;PMS5003;62753;40.394;-80.022;2022-10-22T06:21:46;8;8;
74333;PMS5003;62753;40.394;-80.022;2022-10-22T06:24:11;9;8;
74333;PMS5003;62753;40.394;-80.022;2022-10-22T06:26:37;8;7;
74333;PMS5003;62753;40.394;-80.022;2022-10-22T06:29:02;8;8;
74333;PMS5003;62753;40.394;-80.022;2022-10-22T06:31:28;7;7;
74333;PMS5003;62753;40.394;-80.022;2022-10-22T06:33:53;9;7;
74333;PMS5003;62753;40.394;-80.022;2022-10-22T06:36:19;8;8;
74333;PMS5003;62753;40.394;-80.022;2022-10-22T06:38:44;6;6;
74333;PMS5003;62753;40.394;-80.022;2022-10-22T06:41:10;7;6;
74333;PMS5003;62753;40.394;-80.022;2022-10-22T06:43:34;7;7;
74333;PMS5003;62753;40.394;-80.022;2022-10-22T06:46:00;7;7;
74333;PMS5003;62753;40.394;-80.022;2022-10-22T06:48:25;8;8;
74333;PMS5003;62753;40.394;-80.022;2022-10-22T06:50:51;7;7;
74333;PMS5003;62753;40.394;-80.022;2022-10-22T06:53:16;8;8;
74333;PMS5003;62753;40.394;-80.022;2022-10-22T06:55:41;7;7;
74333;PMS5003;62753;40.394;-80.022;2022-10-22T06:58:07;7;7;
74333;PMS5003;62753;40.394;-80.022;2022-10-22T07:00:32;8;7;
74333;PMS5003;62753;40.394;-80.022;2022-10-22T07:02:58;8;7;
74333;PMS5003;62753;40.394;-80.022;2022-10-22T07:05:23;9;8;
74333;PMS5003;62753;40.394;-80.022;2022-10-22T07:07:48;6;6;
74333;PMS5003;62753;40.394;-80.022;2022-10-22T07:10:14;5;4;
74333;PMS5003;62753;40.394;-80.022;2022-10-22T07:12:39;9;8;
74333;PMS5003;62753;40.394;-80.022;2022-10-22T07:15:05;9;8;
74333;PMS5003;62753;40.394;-80.022;2022-10-22T07:17:30;6;6;
74333;PMS5003;62753;40.394;-80.022;2022-10-22T07:19:56;8;8;
74333;PMS5003;62753;40.394;-80.022;2022-10-22T07:22:21;7;7;
74333;PMS5003;62753;40.394;-80.022;2022-10-22T07:24:46;10;7;
74333;PMS5003;62753;40.394;-80.022;2022-10-22T07:27:11;7;7;
74333;PMS5003;62753;40.394;-80.022;2022-10-22T07:29:37;7;6;
74333;PMS5003;62753;40.394;-80.022;2022-10-22T07:32:02;6;5;
74333;PMS5003;62753;40.394;-80.022;2022-10-22T07:34:28;8;8;
74333;PMS5003;62753;40.394;-80.022;2022-10-22T07:36:53;8;8;
74333;PMS5003;62753;40.394;-80.022;2022-10-22T07:39:18;7;7;
74333;PMS5003;62753;40.394;-80.022;2022-10-22T07:41:44;7;7;
74333;PMS5003;62753;40.394;-80.022;2022-10-22T07:44:10;7;6;
74333;PMS5003;62753;40.394;-80.022;2022-10-22T07:46:35;5;5;
74333;PMS5003;62753;40.394;-80.022;2022-10-22T07:49:00;6;6;
74333;PMS5003;62753;40.394;-80.022;2022-10-22T07:51:25;8;8;
74333;PMS5003;62753;40.394;-80.022;2022-10-22T07:53:51;8;7;
74333;PMS5003;62753;40.394;-80.022;2022-10-22T07:56:16;5;5;
74333;PMS5003;62753;40.394;-80.022;2022-10-22T07:58:42;6;5;
74333;PMS5003;62753;40.394;-80.022;2022-10-22T08:01:07;6;6;
74333;PMS5003;62753;40.394;-80.022;2022-10-22T08:03:32;7;7;
74333;PMS5003;62753;40.394;-80.022;2022-10-22T08:05:58;8;7;
74333;PMS5003;62753;40.394;-80.022;2022-10-22T08:08:23;6;6;
74333;PMS5003;62753;40.394;-80.022;2022-10-22T08:10:50;7;6;
74333;PMS5003;62753;40.394;-80.022;2022-10-22T08:13:15;6;6;
74333;PMS5003;62753;40.394;-80.022;2022-10-22T08:15:40;11;6;
74333;PMS5003;62753;40.394;-80.022;2022-10-22T08:18:05;8;8;
74333;PMS5003;62753;40.394;-80.022;2022-10-22T08:20:30;7;7;
74333;PMS5003;62753;40.394;-80.022;2022-10-22T08:22:56;8;6;
74333;PMS5003;62753;40.394;-80.022;2022-10-22T08:25:21;9;8;
74333;PMS5003;62753;40.394;-80.022;2022-10-22T08:27:47;7;7;
74333;PMS5003;62753;40.394;-80.022;2022-10-22T08:30:13;6;6;
74333;PMS5003;62753;40.394;-80.022;2022-10-22T08:32:37;7;6;
74333;PMS5003;62753;40.394;-80.022;2022-10-22T08:35:03;6;6;
74333;PMS5003;62753;40.394;-80.022;2022-10-22T08:37:28;6;5;
74333;PMS5003;62753;40.394;-80.022;2022-10-22T08:39:54;6;6;
74333;PMS5003;62753;40.394;-80.022;2022-10-22T08:42:26;7;7;
74333;PMS5003;62753;40.394;-80.022;2022-10-22T08:44:48;8;7;
74333;PMS5003;62753;40.394;-80.022;2022-10-22T08:47:14;6;6;
74333;PMS5003;62753;40.394;-80.022;2022-10-22T08:49:36;8;6;
74333;PMS5003;62753;40.394;-80.022;2022-10-22T08:52:01;7;7;
74333;PMS5003;62753;40.394;-80.022;2022-10-22T08:54:29;6;6;
74333;PMS5003;62753;40.394;-80.022;2022-10-22T08:56:54;5;4;
74333;PMS5003;62753;40.394;-80.022;2022-10-22T08:59:18;6;5;
74333;PMS5003;62753;40.394;-80.022;2022-10-22T09:01:43;6;6;
74333;PMS5003;62753;40.394;-80.022;2022-10-22T09:04:10;8;6;
74333;PMS5003;62753;40.394;-80.022;2022-10-22T09:06:34;7;7;
74333;PMS5003;62753;40.394;-80.022;2022-10-22T09:08:58;7;6;
74333;PMS5003;62753;40.394;-80.022;2022-10-22T09:11:25;6;6;
74333;PMS5003;62753;40.394;-80.022;2022-10-22T09:13:49;8;7;
74333;PMS5003;62753;40.394;-80.022;2022-10-22T09:16:16;7;7;
74333;PMS5003;62753;40.394;-80.022;2022-10-22T09:18:41;9;8;
74333;PMS5003;62753;40.394;-80.022;2022-10-22T09:21:08;6;5;
74333;PMS5003;62753;40.394;-80.022;2022-10-22T09:23:31;8;8;
74333;PMS5003;62753;40.394;-80.022;2022-10-22T09:25:56;7;7;
74333;PMS5003;62753;40.394;-80.022;2022-10-22T09:28:21;8;8;
74333;PMS5003;62753;40.394;-80.022;2022-10-22T09:30:47;6;6;
74333;PMS5003;62753;40.394;-80.022;2022-10-22T09:33:13;8;7;
74333;PMS5003;62753;40.394;-80.022;2022-10-22T09:35:43;9;7;
74333;PMS5003;62753;40.394;-80.022;2022-10-22T09:38:06;8;7;
74333;PMS5003;62753;40.394;-80.022;2022-10-22T09:40:28;8;8;
74333;PMS5003;62753;40.394;-80.022;2022-10-22T09:42:54;7;7;
74333;PMS5003;62753;40.394;-80.022;2022-10-22T09:45:20;6;6;
74333;PMS5003;62753;40.394;-80.022;2022-10-22T09:47:44;9;9;
74333;PMS5003;62753;40.394;-80.022;2022-10-22T09:50:16;4;4;
74333;PMS5003;62753;40.394;-80.022;2022-10-22T09:52:35;8;7;
74333;PMS5003;62753;40.394;-80.022;2022-10-22T09:55:01;6;6;
74333;PMS5003;62753;40.394;-80.022;2022-10-22T09:57:26;8;7;
74333;PMS5003;62753;40.394;-80.022;2022-10-22T09:59:53;8;8;
74333;PMS5003;62753;40.394;-80.022;2022-10-22T10:02:17;9;7;
74333;PMS5003;62753;40.394;-80.022;2022-10-22T10:04:45;7;7;
74333;PMS5003;62753;40.394;-80.022;2022-10-22T10:09:32;4;4;
74333;PMS5003;62753;40.394;-80.022;2022-10-22T10:12:00;8;8;
74333;PMS5003;62753;40.394;-80.022;2022-10-22T10:14:25;6;6;
74333;PMS5003;62753;40.394;-80.022;2022-10-22T10:16:52;9;7;
74333;PMS5003;62753;40.394;-80.022;2022-10-22T10:19:25;7;6;
74333;PMS5003;62753;40.394;-80.022;2022-10-22T10:21:41;7;7;
74333;PMS5003;62753;40.394;-80.022;2022-10-22T10:24:15;6;6;
74333;PMS5003;62753;40.394;-80.022;2022-10-22T10:26:31;7;6;
74333;PMS5003;62753;40.394;-80.022;2022-10-22T10:28:59;5;5;
74333;PMS5003;62753;40.394;-80.022;2022-10-22T10:31:24;5;5;
74333;PMS5003;62753;40.394;-80.022;2022-10-22T10:33:49;5;5;
74333;PMS5003;62753;40.394;-80.022;2022-10-22T10:36:15;7;6;
74333;PMS5003;62753;40.394;-80.022;2022-10-22T10:38:40;9;8;
74333;PMS5003;62753;40.394;-80.022;2022-10-22T10:41:06;7;6;
74333;PMS5003;62753;40.394;-80.022;2022-10-22T10:43:29;5;5;
74333;PMS5003;62753;40.394;-80.022;2022-10-22T10:45:56;7;7;
74333;PMS5003;62753;40.394;-80.022;2022-10-22T10:48:22;7;7;
74333;PMS5003;62753;40.394;-80.022;2022-10-22T10:50:49;7;7;
74333;PMS5003;62753;40.394;-80.022;2022-10-22T10:53:13;8;7;
74333;PMS5003;62753;40.394;-80.022;2022-10-22T10:55:37;8;8;
74333;PMS5003;62753;40.394;-80.022;2022-10-22T10:58:03;8;7;
74333;PMS5003;62753;40.394;-80.022;2022-10-22T11:00:26;11;10;
74333;PMS5003;62753;40.394;-80.022;2022-10-22T11:03:00;6;6;
74333;PMS5003;62753;40.394;-80.022;2022-10-22T11:05:21;7;6;
74333;PMS5003;62753;40.394;-80.022;2022-10-22T11:07:44;8;7;
74333;PMS5003;62753;40.394;-80.022;2022-10-22T11:10:09;6;6;
74333;PMS5003;62753;40.394;-80.022;2022-10-22T11:12:33;8;8;
74333;PMS5003;62753;40.394;-80.022;2022-10-22T11:14:59;9;8;
74333;PMS5003;62753;40.394;-80.022;2022-10-22T11:17:23;9;7;
74333;PMS5003;62753;40.394;-80.022;2022-10-22T11:19:50;6;6;
74333;PMS5003;62753;40.394;-80.022;2022-10-22T11:22:15;7;7;
74333;PMS5003;62753;40.394;-80.022;2022-10-22T11:24:41;8;7;
74333;PMS5003;62753;40.394;-80.022;2022-10-22T11:27:07;6;6;
74333;PMS5003;62753;40.394;-80.022;2022-10-22T11:29:32;7;6;
74333;PMS5003;62753;40.394;-80.022;2022-10-22T11:31:56;5;5;
74333;PMS5003;62753;40.394;-80.022;2022-10-22T11:34:22;10;10;
74333;PMS5003;62753;40.394;-80.022;2022-10-22T11:36:47;8;8;
74333;PMS5003;62753;40.394;-80.022;2022-10-22T11:41:37;8;7;
74333;PMS5003;62753;40.394;-80.022;2022-10-22T11:44:07;9;8;
74333;PMS5003;62753;40.394;-80.022;2022-10-22T11:46:34;7;7;
74333;PMS5003;62753;40.394;-80.022;2022-10-22T11:49:01;7;7;
74333;PMS5003;62753;40.394;-80.022;2022-10-22T11:51:29;9;8;
74333;PMS5003;62753;40.394;-80.022;2022-10-22T11:53:44;10;9;
74333;PMS5003;62753;40.394;-80.022;2022-10-22T11:58:38;11;8;
74333;PMS5003;62753;40.394;-80.022;2022-10-22T12:08:19;7;7;
74333;PMS5003;62753;40.394;-80.022;2022-10-22T12:10:49;7;6;
74333;PMS5003;62753;40.394;-80.022;2022-10-22T12:13:10;9;9;
74333;PMS5003;62753;40.394;-80.022;2022-10-22T12:15:33;6;6;
74333;PMS5003;62753;40.394;-80.022;2022-10-22T12:17:59;7;7;
74333;PMS5003;62753;40.394;-80.022;2022-10-22T12:20:24;9;8;
74333;PMS5003;62753;40.394;-80.022;2022-10-22T12:22:49;7;7;
74333;PMS5003;62753;40.394;-80.022;2022-10-22T12:25:16;7;6;
74333;PMS5003;62753;40.394;-80.022;2022-10-22T12:27:40;8;8;
74333;PMS5003;62753;40.394;-80.022;2022-10-22T12:32:32;9;7;
74333;PMS5003;62753;40.394;-80.022;2022-10-22T12:34:56;5;4;
74333;PMS5003;62753;40.394;-80.022;2022-10-22T12:37:21;9;8;
74333;PMS5003;62753;40.394;-80.022;2022-10-22T12:39:46;7;7;
74333;PMS5003;62753;40.394;-80.022;2022-10-22T12:42:12;8;8;
74333;PMS5003;62753;40.394;-80.022;2022-10-22T12:44:37;8;8;
74333;PMS5003;62753;40.394;-80.022;2022-10-22T12:47:02;8;7;
74333;PMS5003;62753;40.394;-80.022;2022-10-22T12:49:30;8;8;
74333;PMS5003;62753;40.394;-80.022;2022-10-22T12:51:53;9;7;
74333;PMS5003;62753;40.394;-80.022;2022-10-22T12:54:22;6;6;
74333;PMS5003;62753;40.394;-80.022;2022-10-22T12:56:44;7;6;
74333;PMS5003;62753;40.394;-80.022;2022-10-22T12:59:12;8;7;
74333;PMS5003;62753;40.394;-80.022;2022-10-22T13:01:35;5;5;
74333;PMS5003;62753;40.394;-80.022;2022-10-22T13:04:04;6;6;
74333;PMS5003;62753;40.394;-80.022;2022-10-22T13:06:25;8;8;
74333;PMS5003;62753;40.394;-80.022;2022-10-22T13:08:55;8;8;
74333;PMS5003;62753;40.394;-80.022;2022-10-22T13:11:19;7;7;
74333;PMS5003;62753;40.394;-80.022;2022-10-22T13:13:42;8;7;
74333;PMS5003;62753;40.394;-80.022;2022-10-22T13:18:32;5;5;
74333;PMS5003;62753;40.394;-80.022;2022-10-22T13:20:58;8;7;
74333;PMS5003;62753;40.394;-80.022;2022-10-22T13:23:23;7;7;
74333;PMS5003;62753;40.394;-80.022;2022-10-22T13:28:15;5;5;
74333;PMS5003;62753;40.394;-80.022;2022-10-22T13:30:49;5;5;
74333;PMS5003;62753;40.394;-80.022;2022-10-22T13:33:04;7;6;
74333;PMS5003;62753;40.394;-80.022;2022-10-22T13:35:30;7;7;
74333;PMS5003;62753;40.394;-80.022;2022-10-22T13:37:55;7;6;
74333;PMS5003;62753;40.394;-80.022;2022-10-22T13:40:20;7;6;
74333;PMS5003;62753;40.394;-80.022;2022-10-22T13:42:45;9;9;
74333;PMS5003;62753;40.394;-80.022;2022-10-22T13:45:11;7;7;
74333;PMS5003;62753;40.394;-80.022;2022-10-22T13:47:36;7;7;
74333;PMS5003;62753;40.394;-80.022;2022-10-22T13:50:02;8;7;
74333;PMS5003;62753;40.394;-80.022;2022-10-22T13:52:28;7;7;
74333;PMS5003;62753;40.394;-80.022;2022-10-22T13:54:52;6;6;
74333;PMS5003;62753;40.394;-80.022;2022-10-22T13:57:17;9;8;
74333;PMS5003;62753;40.394;-80.022;2022-10-22T13:59:42;9;8;
74333;PMS5003;62753;40.394;-80.022;2022-10-22T14:02:08;8;8;
74333;PMS5003;62753;40.394;-80.022;2022-10-22T14:04:33;8;7;
74333;PMS5003;62753;40.394;-80.022;2022-10-22T14:06:59;6;6;
74333;PMS5003;62753;40.394;-80.022;2022-10-22T14:09:24;7;7;
74333;PMS5003;62753;40.394;-80.022;2022-10-22T14:11:49;5;4;
74333;PMS5003;62753;40.394;-80.022;2022-10-22T14:14:14;7;7;
74333;PMS5003;62753;40.394;-80.022;2022-10-22T14:16:40;7;7;
74333;PMS5003;62753;40.394;-80.022;2022-10-22T14:19:05;8;6;
74333;PMS5003;62753;40.394;-80.022;2022-10-22T14:21:32;7;7;
74333;PMS5003;62753;40.394;-80.022;2022-10-22T14:23:55;7;7;
74333;PMS5003;62753;40.394;-80.022;2022-10-22T14:26:22;5;5;
74333;PMS5003;62753;40.394;-80.022;2022-10-22T14:28:46;10;10;
74333;PMS5003;62753;40.394;-80.022;2022-10-22T14:31:11;7;7;
74333;PMS5003;62753;40.394;-80.022;2022-10-22T14:33:37;7;6;
74333;PMS5003;62753;40.394;-80.022;2022-10-22T14:36:02;8;7;
74333;PMS5003;62753;40.394;-80.022;2022-10-22T14:38:27;7;7;
74333;PMS5003;62753;40.394;-80.022;2022-10-22T14:40:52;6;6;
74333;PMS5003;62753;40.394;-80.022;2022-10-22T14:43:19;9;8;
74333;PMS5003;62753;40.394;-80.022;2022-10-22T14:45:43;7;7;
74333;PMS5003;62753;40.394;-80.022;2022-10-22T14:48:08;10;10;
74333;PMS5003;62753;40.394;-80.022;2022-10-22T14:50:33;8;6;
74333;PMS5003;62753;40.394;-80.022;2022-10-22T14:52:59;10;7;
74333;PMS5003;62753;40.394;-80.022;2022-10-22T14:55:24;7;7;
74333;PMS5003;62753;40.394;-80.022;2022-10-22T14:57:50;9;8;
74333;PMS5003;62753;40.394;-80.022;2022-10-22T15:00:15;6;6;
74333;PMS5003;62753;40.394;-80.022;2022-10-22T15:02:40;8;8;
74333;PMS5003;62753;40.394;-80.022;2022-10-22T15:05:05;10;10;
74333;PMS5003;62753;40.394;-80.022;2022-10-22T15:07:30;9;8;
74333;PMS5003;62753;40.394;-80.022;2022-10-22T15:09:56;10;9;
74333;PMS5003;62753;40.394;-80.022;2022-10-22T15:12:21;8;8;
74333;PMS5003;62753;40.394;-80.022;2022-10-22T15:14:46;12;11;
74333;PMS5003;62753;40.394;-80.022;2022-10-22T15:17:11;7;7;
74333;PMS5003;62753;40.394;-80.022;2022-10-22T15:19:36;6;6;
74333;PMS5003;62753;40.394;-80.022;2022-10-22T15:24:27;8;7;
74333;PMS5003;62753;40.394;-80.022;2022-10-22T15:26:53;7;7;
74333;PMS5003;62753;40.394;-80.022;2022-10-22T15:29:17;8;7;
74333;PMS5003;62753;40.394;-80.022;2022-10-22T15:31:44;8;8;
74333;PMS5003;62753;40.394;-80.022;2022-10-22T15:34:08;6;6;
74333;PMS5003;62753;40.394;-80.022;2022-10-22T15:36:34;8;8;
74333;PMS5003;62753;40.394;-80.022;2022-10-22T15:38:58;8;7;
74333;PMS5003;62753;40.394;-80.022;2022-10-22T15:41:24;9;8;
74333;PMS5003;62753;40.394;-80.022;2022-10-22T15:43:49;8;7;
74333;PMS5003;62753;40.394;-80.022;2022-10-22T15:46:15;7;7;
74333;PMS5003;62753;40.394;-80.022;2022-10-22T15:48:40;7;7;
74333;PMS5003;62753;40.394;-80.022;2022-10-22T15:51:06;8;8;
74333;PMS5003;62753;40.394;-80.022;2022-10-22T15:53:30;8;7;
74333;PMS5003;62753;40.394;-80.022;2022-10-22T15:55:55;7;7;
74333;PMS5003;62753;40.394;-80.022;2022-10-22T15:58:20;7;7;
74333;PMS5003;62753;40.394;-80.022;2022-10-22T16:00:46;9;9;
74333;PMS5003;62753;40.394;-80.022;2022-10-22T16:03:11;6;6;
74333;PMS5003;62753;40.394;-80.022;2022-10-22T16:05:36;8;7;
74333;PMS5003;62753;40.394;-80.022;2022-10-22T16:08:01;9;8;
74333;PMS5003;62753;40.394;-80.022;2022-10-22T16:10:26;8;7;
74333;PMS5003;62753;40.394;-80.022;2022-10-22T16:12:52;8;7;
74333;PMS5003;62753;40.394;-80.022;2022-10-22T16:15:17;5;5;
74333;PMS5003;62753;40.394;-80.022;2022-10-22T16:17:43;8;7;
74333;PMS5003;62753;40.394;-80.022;2022-10-22T16:20:09;8;6;
74333;PMS5003;62753;40.394;-80.022;2022-10-22T16:22:33;7;7;
74333;PMS5003;62753;40.394;-80.022;2022-10-22T16:24:59;9;9;
74333;PMS5003;62753;40.394;-80.022;2022-10-22T16:27:24;5;5;